sensor_id;sensor_type;location;lat;lon;timestamp;pressure;altitude;pressure_sealevel;temperature;humidity
34586;BME280;20816;50.950;11.108;2023-05-22T00:01:40;98285.09;;;16.77;100.00
34586;BME280;20816;50.950;11.108;2023-05-22T00:04:10;98283.38;;;16.59;100.00
34586;BME280;20816;50.950;11.108;2023-05-22T00:06:41;98287.19;;;16.36;100.00
34586;BME280;20816;50.950;11.108;2023-05-22T00:09:08;98283.44;;;16.23;100.00
34586;BME280;20816;50.950;11.108;2023-05-22T00:11:35;98284.34;;;16.05;100.00
34586;BME280;20816;50.950;11.108;2023-05-22T00:14:01;98283.50;;;15.85;100.00
34586;BME280;20816;50.950;11.108;2023-05-22T00:16:28;98281.47;;;15.73;100.00
34586;BME280;20816;50.950;11.108;2023-05-22T00:18:55;98285.09;;;15.70;100.00
34586;BME280;20816;50.950;11.108;2023-05-22T00:21:23;98279.25;;;15.64;100.00
34586;BME280;20816;50.950;11.108;2023-05-22T00:23:49;98277.63;;;15.60;100.00
34586;BME280;20816;50.950;11.108;2023-05-22T00:26:16;98276.72;;;15.61;100.00
34586;BME280;20816;50.950;11.108;2023-05-22T00:28:43;98281.22;;;15.59;100.00
34586;BME280;20816;50.950;11.108;2023-05-22T00:31:09;98270.78;;;15.56;100.00
34586;BME280;20816;50.950;11.108;2023-05-22T00:33:36;98284.69;;;15.61;100.00
34586;BME280;20816;50.950;11.108;2023-05-22T00:36:03;98275.94;;;15.59;100.00
34586;BME280;20816;50.950;11.108;2023-05-22T00:38:31;98275.34;;;15.52;100.00
34586;BME280;20816;50.950;11.108;2023-05-22T00:40:59;98281.34;;;15.37;100.00
34586;BME280;20816;50.950;11.108;2023-05-22T00:43:27;98280.50;;;15.36;100.00
34586;BME280;20816;50.950;11.108;2023-05-22T00:45:54;98284.94;;;15.17;100.00
34586;BME280;20816;50.950;11.108;2023-05-22T00:48:21;98296.06;;;15.05;100.00
34586;BME280;20816;50.950;11.108;2023-05-22T00:50:53;98291.63;;;15.05;100.00
34586;BME280;20816;50.950;11.108;2023-05-22T00:53:21;98294.59;;;14.98;100.00
34586;BME280;20816;50.950;11.108;2023-05-22T00:55:50;98293.53;;;14.83;100.00
34586;BME280;20816;50.950;11.108;2023-05-22T00:58:18;98294.78;;;14.74;100.00
34586;BME280;20816;50.950;11.108;2023-05-22T01:00:47;98292.13;;;14.74;100.00
34586;BME280;20816;50.950;11.108;2023-05-22T01:03:14;98290.94;;;14.61;100.00
34586;BME280;20816;50.950;11.108;2023-05-22T01:05:42;98292.13;;;14.54;100.00
34586;BME280;20816;50.950;11.108;2023-05-22T01:08:10;98283.59;;;14.47;100.00
34586;BME280;20816;50.950;11.108;2023-05-22T01:10:38;98288.38;;;14.38;100.00
34586;BME280;20816;50.950;11.108;2023-05-22T01:13:25;98295.59;;;14.34;100.00
34586;BME280;20816;50.950;11.108;2023-05-22T01:18:31;98294.31;;;14.22;100.00
34586;BME280;20816;50.950;11.108;2023-05-22T01:21:07;98294.06;;;14.28;100.00
34586;BME280;20816;50.950;11.108;2023-05-22T01:29:42;98290.66;;;14.25;100.00
34586;BME280;20816;50.950;11.108;2023-05-22T01:32:23;98294.31;;;14.22;100.00
34586;BME280;20816;50.950;11.108;2023-05-22T01:34:55;98291.78;;;14.19;100.00
34586;BME280;20816;50.950;11.108;2023-05-22T01:37:23;98296.00;;;14.23;100.00
34586;BME280;20816;50.950;11.108;2023-05-22T01:39:52;98292.41;;;14.26;100.00
34586;BME280;20816;50.950;11.108;2023-05-22T01:42:20;98292.34;;;14.27;100.00
34586;BME280;20816;50.950;11.108;2023-05-22T01:44:47;98299.28;;;14.30;100.00
34586;BME280;20816;50.950;11.108;2023-05-22T01:47:14;98294.06;;;14.28;100.00
34586;BME280;20816;50.950;11.108;2023-05-22T01:49:41;98290.47;;;14.29;100.00
34586;BME280;20816;50.950;11.108;2023-05-22T01:55:12;98292.59;;;14.21;100.00
34586;BME280;20816;50.950;11.108;2023-05-22T01:57:50;98294.19;;;14.25;100.00
34586;BME280;20816;50.950;11.108;2023-05-22T02:00:22;98295.22;;;14.21;100.00
34586;BME280;20816;50.950;11.108;2023-05-22T02:02:56;98290.31;;;14.12;100.00
34586;BME280;20816;50.950;11.108;2023-05-22T02:05:25;98291.50;;;14.05;100.00
34586;BME280;20816;50.950;11.108;2023-05-22T02:07:55;98297.16;;;13.96;100.00
34586;BME280;20816;50.950;11.108;2023-05-22T02:10:24;98295.53;;;13.92;100.00
34586;BME280;20816;50.950;11.108;2023-05-22T02:12:52;98289.78;;;13.82;100.00
34586;BME280;20816;50.950;11.108;2023-05-22T02:15:19;98288.81;;;13.85;100.00
34586;BME280;20816;50.950;11.108;2023-05-22T02:17:46;98296.28;;;13.73;100.00
34586;BME280;20816;50.950;11.108;2023-05-22T02:20:15;98294.44;;;13.75;100.00
34586;BME280;20816;50.950;11.108;2023-05-22T02:22:44;98296.50;;;13.67;100.00
34586;BME280;20816;50.950;11.108;2023-05-22T02:25:12;98289.50;;;13.66;100.00
34586;BME280;20816;50.950;11.108;2023-05-22T02:27:44;98282.72;;;13.83;100.00
34586;BME280;20816;50.950;11.108;2023-05-22T02:30:12;98276.94;;;13.95;100.00
34586;BME280;20816;50.950;11.108;2023-05-22T02:32:39;98282.03;;;13.99;100.00
34586;BME280;20816;50.950;11.108;2023-05-22T02:35:07;98279.44;;;13.98;100.00
34586;BME280;20816;50.950;11.108;2023-05-22T02:37:34;98286.75;;;13.91;100.00
34586;BME280;20816;50.950;11.108;2023-05-22T02:40:02;98274.06;;;14.01;100.00
34586;BME280;20816;50.950;11.108;2023-05-22T02:42:31;98278.34;;;14.25;100.00
34586;BME280;20816;50.950;11.108;2023-05-22T02:44:58;98274.38;;;14.36;100.00
34586;BME280;20816;50.950;11.108;2023-05-22T02:47:25;98278.06;;;14.31;100.00
34586;BME280;20816;50.950;11.108;2023-05-22T02:49:52;98274.88;;;14.23;100.00
34586;BME280;20816;50.950;11.108;2023-05-22T02:52:19;98275.41;;;14.11;100.00
34586;BME280;20816;50.950;11.108;2023-05-22T02:54:46;98270.59;;;13.99;100.00
34586;BME280;20816;50.950;11.108;2023-05-22T02:57:13;98260.22;;;13.94;100.00
34586;BME280;20816;50.950;11.108;2023-05-22T02:59:39;98274.59;;;13.87;100.00
34586;BME280;20816;50.950;11.108;2023-05-22T03:02:06;98275.09;;;13.75;100.00
34586;BME280;20816;50.950;11.108;2023-05-22T03:04:33;98270.47;;;13.58;100.00
34586;BME280;20816;50.950;11.108;2023-05-22T03:07:03;98267.41;;;13.47;100.00
34586;BME280;20816;50.950;11.108;2023-05-22T03:09:32;98272.84;;;13.42;100.00
34586;BME280;20816;50.950;11.108;2023-05-22T03:11:59;98263.41;;;13.37;100.00
34586;BME280;20816;50.950;11.108;2023-05-22T03:14:26;98266.97;;;13.36;100.00
34586;BME280;20816;50.950;11.108;2023-05-22T03:16:54;98259.28;;;13.30;100.00
34586;BME280;20816;50.950;11.108;2023-05-22T03:19:21;98270.75;;;13.29;100.00
34586;BME280;20816;50.950;11.108;2023-05-22T03:21:48;98260.06;;;13.32;100.00
34586;BME280;20816;50.950;11.108;2023-05-22T03:24:15;98270.06;;;13.24;100.00
34586;BME280;20816;50.950;11.108;2023-05-22T03:26:42;98277.19;;;13.22;100.00
34586;BME280;20816;50.950;11.108;2023-05-22T03:29:09;98270.19;;;13.21;100.00
34586;BME280;20816;50.950;11.108;2023-05-22T03:31:36;98270.84;;;13.26;100.00
34586;BME280;20816;50.950;11.108;2023-05-22T03:34:03;98277.91;;;13.25;100.00
34586;BME280;20816;50.950;11.108;2023-05-22T03:36:31;98272.69;;;13.24;100.00
34586;BME280;20816;50.950;11.108;2023-05-22T03:39:02;98278.84;;;13.24;100.00
34586;BME280;20816;50.950;11.108;2023-05-22T03:41:29;98272.09;;;13.15;100.00
34586;BME280;20816;50.950;11.108;2023-05-22T03:43:56;98274.72;;;13.15;100.00
34586;BME280;20816;50.950;11.108;2023-05-22T03:46:23;98272.09;;;13.15;100.00
34586;BME280;20816;50.950;11.108;2023-05-22T03:48:50;98275.47;;;13.21;100.00
34586;BME280;20816;50.950;11.108;2023-05-22T03:51:17;98269.94;;;13.27;100.00
34586;BME280;20816;50.950;11.108;2023-05-22T03:53:45;98267.25;;;13.28;100.00
34586;BME280;20816;50.950;11.108;2023-05-22T03:56:12;98270.69;;;13.30;100.00
34586;BME280;20816;50.950;11.108;2023-05-22T03:58:39;98267.84;;;13.35;100.00
34586;BME280;20816;50.950;11.108;2023-05-22T04:01:06;98259.84;;;13.38;100.00
34586;BME280;20816;50.950;11.108;2023-05-22T04:03:36;98263.97;;;13.45;100.00
34586;BME280;20816;50.950;11.108;2023-05-22T04:06:03;98262.34;;;13.41;100.00
34586;BME280;20816;50.950;11.108;2023-05-22T04:08:31;98260.75;;;13.37;100.00
34586;BME280;20816;50.950;11.108;2023-05-22T04:10:57;98263.13;;;13.43;100.00
34586;BME280;20816;50.950;11.108;2023-05-22T04:13:24;98260.16;;;13.52;100.00
34586;BME280;20816;50.950;11.108;2023-05-22T04:15:52;98257.25;;;13.58;100.00
34586;BME280;20816;50.950;11.108;2023-05-22T04:18:19;98256.25;;;13.62;100.00
34586;BME280;20816;50.950;11.108;2023-05-22T04:20:46;98251.59;;;13.69;100.00
34586;BME280;20816;50.950;11.108;2023-05-22T04:23:12;98253.28;;;13.70;100.00
34586;BME280;20816;50.950;11.108;2023-05-22T04:25:39;98261.28;;;13.68;100.00
34586;BME280;20816;50.950;11.108;2023-05-22T04:28:06;98260.28;;;13.71;100.00
34586;BME280;20816;50.950;11.108;2023-05-22T04:30:34;98263.56;;;13.78;100.00
34586;BME280;20816;50.950;11.108;2023-05-22T04:33:06;98266.91;;;13.81;100.00
34586;BME280;20816;50.950;11.108;2023-05-22T04:35:33;98264.84;;;13.89;100.00
34586;BME280;20816;50.950;11.108;2023-05-22T04:38:00;98263.59;;;13.98;100.00
34586;BME280;20816;50.950;11.108;2023-05-22T04:40:32;98265.69;;;14.12;100.00
34586;BME280;20816;50.950;11.108;2023-05-22T04:42:59;98262.72;;;14.19;100.00
34586;BME280;20816;50.950;11.108;2023-05-22T04:45:27;98263.34;;;14.26;100.00
34586;BME280;20816;50.950;11.108;2023-05-22T04:47:54;98271.91;;;14.31;100.00
34586;BME280;20816;50.950;11.108;2023-05-22T04:50:25;98268.88;;;14.40;100.00
34586;BME280;20816;50.950;11.108;2023-05-22T04:52:51;98265.84;;;14.49;100.00
34586;BME280;20816;50.950;11.108;2023-05-22T04:55:18;98276.78;;;14.62;100.00
34586;BME280;20816;50.950;11.108;2023-05-22T04:57:45;98266.66;;;14.72;100.00
34586;BME280;20816;50.950;11.108;2023-05-22T05:00:13;98274.16;;;14.82;100.00
34586;BME280;20816;50.950;11.108;2023-05-22T05:02:41;98270.00;;;14.96;100.00
34586;BME280;20816;50.950;11.108;2023-05-22T05:05:08;98265.97;;;15.07;100.00
34586;BME280;20816;50.950;11.108;2023-05-22T05:07:37;98266.25;;;15.20;100.00
34586;BME280;20816;50.950;11.108;2023-05-22T05:10:04;98258.72;;;15.30;100.00
34586;BME280;20816;50.950;11.108;2023-05-22T05:12:32;98258.03;;;15.45;100.00
34586;BME280;20816;50.950;11.108;2023-05-22T05:14:58;98261.56;;;15.64;100.00
34586;BME280;20816;50.950;11.108;2023-05-22T05:17:25;98257.31;;;15.79;100.00
34586;BME280;20816;50.950;11.108;2023-05-22T05:19:52;98256.63;;;15.93;100.00
34586;BME280;20816;50.950;11.108;2023-05-22T05:22:18;98256.81;;;16.07;100.00
34586;BME280;20816;50.950;11.108;2023-05-22T05:24:45;98253.50;;;16.21;100.00
34586;BME280;20816;50.950;11.108;2023-05-22T05:27:12;98255.22;;;16.22;100.00
34586;BME280;20816;50.950;11.108;2023-05-22T05:29:39;98254.03;;;16.27;100.00
34586;BME280;20816;50.950;11.108;2023-05-22T05:32:07;98256.63;;;16.46;100.00
34586;BME280;20816;50.950;11.108;2023-05-22T05:34:34;98251.22;;;16.65;100.00
34586;BME280;20816;50.950;11.108;2023-05-22T05:37:01;98254.66;;;16.85;100.00
34586;BME280;20816;50.950;11.108;2023-05-22T05:39:28;98254.69;;;17.00;100.00
34586;BME280;20816;50.950;11.108;2023-05-22T05:41:55;98252.41;;;17.10;100.00
34586;BME280;20816;50.950;11.108;2023-05-22T05:44:21;98254.50;;;17.21;100.00
34586;BME280;20816;50.950;11.108;2023-05-22T05:46:48;98256.31;;;17.36;100.00
34586;BME280;20816;50.950;11.108;2023-05-22T05:49:15;98248.38;;;17.52;100.00
34586;BME280;20816;50.950;11.108;2023-05-22T05:51:41;98257.91;;;17.72;100.00
34586;BME280;20816;50.950;11.108;2023-05-22T05:54:08;98250.53;;;17.77;100.00
34586;BME280;20816;50.950;11.108;2023-05-22T05:56:35;98260.38;;;17.90;100.00
34586;BME280;20816;50.950;11.108;2023-05-22T05:59:03;98259.00;;;17.68;100.00
34586;BME280;20816;50.950;11.108;2023-05-22T06:01:33;98257.28;;;17.98;100.00
34586;BME280;20816;50.950;11.108;2023-05-22T06:04:01;98271.41;;;18.14;99.89
34586;BME280;20816;50.950;11.108;2023-05-22T06:06:30;98263.94;;;18.51;98.90
34586;BME280;20816;50.950;11.108;2023-05-22T06:09:02;98257.34;;;18.72;97.89
34586;BME280;20816;50.950;11.108;2023-05-22T06:11:32;98267.28;;;18.99;96.85
34586;BME280;20816;50.950;11.108;2023-05-22T06:14:05;98258.72;;;19.37;95.60
34586;BME280;20816;50.950;11.108;2023-05-22T06:16:35;98264.81;;;19.24;95.09
34586;BME280;20816;50.950;11.108;2023-05-22T06:19:02;98264.44;;;19.30;94.66
34586;BME280;20816;50.950;11.108;2023-05-22T06:21:30;98260.06;;;19.58;91.89
34586;BME280;20816;50.950;11.108;2023-05-22T06:23:56;98267.97;;;19.86;90.70
34586;BME280;20816;50.950;11.108;2023-05-22T06:26:24;98261.81;;;20.13;88.41
34586;BME280;20816;50.950;11.108;2023-05-22T06:28:51;98256.72;;;20.50;88.56
34586;BME280;20816;50.950;11.108;2023-05-22T06:31:20;98261.03;;;20.78;87.19
34586;BME280;20816;50.950;11.108;2023-05-22T06:33:48;98261.81;;;21.18;85.45
34586;BME280;20816;50.950;11.108;2023-05-22T06:36:15;98269.38;;;20.98;85.60
34586;BME280;20816;50.950;11.108;2023-05-22T06:38:42;98260.06;;;21.17;84.95
34586;BME280;20816;50.950;11.108;2023-05-22T06:41:11;98259.94;;;21.57;83.82
34586;BME280;20816;50.950;11.108;2023-05-22T06:43:38;98260.41;;;21.87;81.73
34586;BME280;20816;50.950;11.108;2023-05-22T06:46:04;98259.91;;;22.30;80.45
34586;BME280;20816;50.950;11.108;2023-05-22T06:48:33;98251.63;;;22.57;79.22
34586;BME280;20816;50.950;11.108;2023-05-22T06:51:01;98264.81;;;22.36;76.85
34586;BME280;20816;50.950;11.108;2023-05-22T06:53:27;98268.00;;;22.41;77.88
34586;BME280;20816;50.950;11.108;2023-05-22T06:55:55;98267.97;;;22.65;76.62
34586;BME280;20816;50.950;11.108;2023-05-22T06:58:21;98264.09;;;22.80;77.02
34586;BME280;20816;50.950;11.108;2023-05-22T07:00:48;98267.66;;;22.81;77.57
34586;BME280;20816;50.950;11.108;2023-05-22T07:03:14;98258.97;;;23.35;76.17
34586;BME280;20816;50.950;11.108;2023-05-22T07:05:41;98260.19;;;23.42;75.41
34586;BME280;20816;50.950;11.108;2023-05-22T07:08:08;98255.41;;;23.45;74.50
34586;BME280;20816;50.950;11.108;2023-05-22T07:10:35;98264.88;;;23.62;74.06
34586;BME280;20816;50.950;11.108;2023-05-22T07:13:02;98259.81;;;23.35;74.34
34586;BME280;20816;50.950;11.108;2023-05-22T07:15:29;98259.59;;;23.61;74.70
34586;BME280;20816;50.950;11.108;2023-05-22T07:17:56;98257.47;;;23.98;73.78
34586;BME280;20816;50.950;11.108;2023-05-22T07:20:23;98256.41;;;23.89;73.93
34586;BME280;20816;50.950;11.108;2023-05-22T07:22:51;98255.84;;;24.07;73.78
34586;BME280;20816;50.950;11.108;2023-05-22T07:25:18;98254.28;;;24.04;73.31
34586;BME280;20816;50.950;11.108;2023-05-22T07:27:44;98250.09;;;24.54;73.29
34586;BME280;20816;50.950;11.108;2023-05-22T07:30:11;98252.28;;;24.17;74.52
34586;BME280;20816;50.950;11.108;2023-05-22T07:32:38;98249.28;;;24.43;73.65
34586;BME280;20816;50.950;11.108;2023-05-22T07:35:06;98254.44;;;24.35;74.48
34586;BME280;20816;50.950;11.108;2023-05-22T07:37:33;98249.75;;;24.48;72.44
34586;BME280;20816;50.950;11.108;2023-05-22T07:40:03;98257.00;;;24.68;71.67
34586;BME280;20816;50.950;11.108;2023-05-22T07:42:30;98253.16;;;25.03;71.12
34586;BME280;20816;50.950;11.108;2023-05-22T07:44:57;98255.03;;;25.12;71.83
34586;BME280;20816;50.950;11.108;2023-05-22T07:47:24;98249.69;;;25.22;71.57
34586;BME280;20816;50.950;11.108;2023-05-22T07:49:51;98253.16;;;24.92;72.88
34586;BME280;20816;50.950;11.108;2023-05-22T07:52:17;98246.50;;;25.68;71.34
34586;BME280;20816;50.950;11.108;2023-05-22T07:54:44;98243.72;;;25.79;70.07
34586;BME280;20816;50.950;11.108;2023-05-22T07:57:11;98250.28;;;26.06;69.47
34586;BME280;20816;50.950;11.108;2023-05-22T07:59:38;98253.88;;;26.16;68.38
34586;BME280;20816;50.950;11.108;2023-05-22T08:02:05;98249.19;;;26.08;69.27
34586;BME280;20816;50.950;11.108;2023-05-22T08:04:33;98250.19;;;25.67;69.78
34586;BME280;20816;50.950;11.108;2023-05-22T08:07:01;98257.88;;;25.71;70.13
34586;BME280;20816;50.950;11.108;2023-05-22T08:09:27;98252.34;;;25.42;71.58
34586;BME280;20816;50.950;11.108;2023-05-22T08:11:54;98252.38;;;25.52;71.12
34586;BME280;20816;50.950;11.108;2023-05-22T08:14:21;98261.78;;;25.27;71.62
34586;BME280;20816;50.950;11.108;2023-05-22T08:16:48;98244.50;;;25.60;70.27
34586;BME280;20816;50.950;11.108;2023-05-22T08:19:15;98245.50;;;26.19;69.24
34586;BME280;20816;50.950;11.108;2023-05-22T08:21:42;98242.78;;;25.99;69.19
34586;BME280;20816;50.950;11.108;2023-05-22T08:24:08;98246.88;;;26.04;68.46
34586;BME280;20816;50.950;11.108;2023-05-22T08:26:35;98243.66;;;26.29;68.23
34586;BME280;20816;50.950;11.108;2023-05-22T08:29:02;98245.22;;;26.70;67.70
34586;BME280;20816;50.950;11.108;2023-05-22T08:31:29;98243.81;;;27.05;66.02
34586;BME280;20816;50.950;11.108;2023-05-22T08:33:56;98240.25;;;27.04;66.65
34586;BME280;20816;50.950;11.108;2023-05-22T08:36:29;98237.13;;;27.36;66.00
34586;BME280;20816;50.950;11.108;2023-05-22T08:38:56;98236.06;;;27.20;66.18
34586;BME280;20816;50.950;11.108;2023-05-22T08:41:23;98232.41;;;27.21;66.26
34586;BME280;20816;50.950;11.108;2023-05-22T08:43:50;98234.19;;;27.67;65.20
34586;BME280;20816;50.950;11.108;2023-05-22T08:46:17;98231.66;;;28.11;64.65
34586;BME280;20816;50.950;11.108;2023-05-22T08:48:45;98224.00;;;28.06;65.37
34586;BME280;20816;50.950;11.108;2023-05-22T08:51:15;98228.69;;;27.86;64.30
34586;BME280;20816;50.950;11.108;2023-05-22T08:53:44;98220.13;;;27.91;64.51
34586;BME280;20816;50.950;11.108;2023-05-22T08:56:11;98222.31;;;27.50;65.58
34586;BME280;20816;50.950;11.108;2023-05-22T08:58:39;98226.28;;;27.56;65.41
34586;BME280;20816;50.950;11.108;2023-05-22T09:01:06;98217.13;;;27.39;67.48
34586;BME280;20816;50.950;11.108;2023-05-22T09:03:34;98215.91;;;27.24;68.07
34586;BME280;20816;50.950;11.108;2023-05-22T09:06:02;98216.19;;;27.21;68.06
34586;BME280;20816;50.950;11.108;2023-05-22T09:08:30;98218.00;;;26.54;67.55
34586;BME280;20816;50.950;11.108;2023-05-22T09:10:56;98215.00;;;26.76;67.60
34586;BME280;20816;50.950;11.108;2023-05-22T09:13:30;98210.31;;;26.88;67.40
34586;BME280;20816;50.950;11.108;2023-05-22T09:15:58;98202.81;;;27.29;66.12
34586;BME280;20816;50.950;11.108;2023-05-22T09:18:26;98205.63;;;27.37;65.61
34586;BME280;20816;50.950;11.108;2023-05-22T09:20:56;98208.13;;;27.48;65.16
34586;BME280;20816;50.950;11.108;2023-05-22T09:23:22;98198.75;;;27.43;64.92
34586;BME280;20816;50.950;11.108;2023-05-22T09:25:53;98205.09;;;27.51;64.78
34586;BME280;20816;50.950;11.108;2023-05-22T09:28:20;98204.63;;;27.65;64.65
34586;BME280;20816;50.950;11.108;2023-05-22T09:30:48;98200.38;;;27.90;63.77
34586;BME280;20816;50.950;11.108;2023-05-22T09:33:17;98204.31;;;28.14;63.75
34586;BME280;20816;50.950;11.108;2023-05-22T09:35:46;98191.59;;;28.06;61.79
34586;BME280;20816;50.950;11.108;2023-05-22T09:38:14;98202.22;;;27.90;61.11
34586;BME280;20816;50.950;11.108;2023-05-22T09:40:40;98198.84;;;27.88;61.71
34586;BME280;20816;50.950;11.108;2023-05-22T09:43:08;98197.75;;;27.99;62.24
34586;BME280;20816;50.950;11.108;2023-05-22T09:45:36;98192.03;;;27.29;62.01
34586;BME280;20816;50.950;11.108;2023-05-22T09:48:08;98194.13;;;27.62;60.20
34586;BME280;20816;50.950;11.108;2023-05-22T09:50:35;98191.00;;;27.57;60.39
34586;BME280;20816;50.950;11.108;2023-05-22T09:53:03;98190.13;;;27.39;60.17
34586;BME280;20816;50.950;11.108;2023-05-22T09:55:30;98192.22;;;27.45;61.18
34586;BME280;20816;50.950;11.108;2023-05-22T09:58:02;98185.53;;;27.77;60.74
34586;BME280;20816;50.950;11.108;2023-05-22T10:00:28;98197.34;;;27.93;60.16
34586;BME280;20816;50.950;11.108;2023-05-22T10:03:09;98190.03;;;28.57;58.52
34586;BME280;20816;50.950;11.108;2023-05-22T10:05:46;98180.03;;;29.62;57.32
34586;BME280;20816;50.950;11.108;2023-05-22T10:08:16;98176.03;;;29.82;55.16
34586;BME280;20816;50.950;11.108;2023-05-22T10:10:46;98181.94;;;29.77;55.61
34586;BME280;20816;50.950;11.108;2023-05-22T10:13:15;98179.63;;;29.99;55.34
34586;BME280;20816;50.950;11.108;2023-05-22T10:15:43;98174.00;;;29.84;55.23
34586;BME280;20816;50.950;11.108;2023-05-22T10:18:11;98175.25;;;30.06;55.23
34586;BME280;20816;50.950;11.108;2023-05-22T10:20:38;98172.41;;;30.16;54.30
34586;BME280;20816;50.950;11.108;2023-05-22T10:23:05;98176.16;;;30.14;54.16
34586;BME280;20816;50.950;11.108;2023-05-22T10:25:34;98168.78;;;29.91;54.69
34586;BME280;20816;50.950;11.108;2023-05-22T10:28:03;98161.66;;;29.81;55.11
34586;BME280;20816;50.950;11.108;2023-05-22T10:33:21;98173.31;;;29.40;56.31
34586;BME280;20816;50.950;11.108;2023-05-22T10:35:53;98156.41;;;29.96;55.51
34586;BME280;20816;50.950;11.108;2023-05-22T10:41:06;98153.72;;;30.04;55.23
34586;BME280;20816;50.950;11.108;2023-05-22T10:43:39;98147.13;;;29.14;56.06
34586;BME280;20816;50.950;11.108;2023-05-22T10:46:09;98144.66;;;29.63;56.64
34586;BME280;20816;50.950;11.108;2023-05-22T10:48:47;98131.97;;;29.29;56.35
34586;BME280;20816;50.950;11.108;2023-05-22T10:51:20;98139.25;;;28.69;57.69
34586;BME280;20816;50.950;11.108;2023-05-22T10:54:00;98143.16;;;29.69;56.73
34586;BME280;20816;50.950;11.108;2023-05-22T10:56:32;98136.16;;;30.17;54.17
34586;BME280;20816;50.950;11.108;2023-05-22T10:59:02;98138.50;;;30.28;53.90
34586;BME280;20816;50.950;11.108;2023-05-22T11:01:35;98140.19;;;30.45;53.34
34586;BME280;20816;50.950;11.108;2023-05-22T11:06:39;98129.28;;;29.88;56.13
34586;BME280;20816;50.950;11.108;2023-05-22T11:09:27;98130.53;;;30.34;55.85
34586;BME280;20816;50.950;11.108;2023-05-22T11:14:54;98124.88;;;30.93;54.84
34586;BME280;20816;50.950;11.108;2023-05-22T11:17:26;98124.06;;;30.84;54.24
34586;BME280;20816;50.950;11.108;2023-05-22T11:19:57;98123.44;;;30.09;55.22
34586;BME280;20816;50.950;11.108;2023-05-22T11:22:36;98127.16;;;30.57;53.70
34586;BME280;20816;50.950;11.108;2023-05-22T11:25:09;98115.66;;;31.10;53.86
34586;BME280;20816;50.950;11.108;2023-05-22T11:27:37;98114.13;;;31.16;53.04
34586;BME280;20816;50.950;11.108;2023-05-22T11:30:07;98109.34;;;31.18;53.74
34586;BME280;20816;50.950;11.108;2023-05-22T11:32:35;98105.84;;;31.01;54.23
34586;BME280;20816;50.950;11.108;2023-05-22T11:35:02;98111.84;;;30.96;55.14
34586;BME280;20816;50.950;11.108;2023-05-22T11:37:31;98106.09;;;30.83;53.99
34586;BME280;20816;50.950;11.108;2023-05-22T11:40:03;98096.59;;;30.87;54.58
34586;BME280;20816;50.950;11.108;2023-05-22T11:42:30;98099.00;;;30.50;54.22
34586;BME280;20816;50.950;11.108;2023-05-22T11:44:58;98095.19;;;31.00;54.20
34586;BME280;20816;50.950;11.108;2023-05-22T11:47:28;98089.38;;;31.03;54.28
34586;BME280;20816;50.950;11.108;2023-05-22T11:49:56;98091.56;;;31.15;52.76
34586;BME280;20816;50.950;11.108;2023-05-22T11:52:23;98090.25;;;31.42;52.83
34586;BME280;20816;50.950;11.108;2023-05-22T11:54:52;98080.84;;;31.30;52.29
34586;BME280;20816;50.950;11.108;2023-05-22T11:57:21;98085.94;;;31.17;52.46
34586;BME280;20816;50.950;11.108;2023-05-22T11:59:48;98081.25;;;31.73;51.96
34586;BME280;20816;50.950;11.108;2023-05-22T12:02:15;98083.81;;;31.04;52.44
34586;BME280;20816;50.950;11.108;2023-05-22T12:04:42;98072.63;;;30.99;52.53
34586;BME280;20816;50.950;11.108;2023-05-22T12:07:09;98078.69;;;30.29;53.49
34586;BME280;20816;50.950;11.108;2023-05-22T12:09:41;98067.41;;;30.89;51.37
34586;BME280;20816;50.950;11.108;2023-05-22T12:12:08;98073.25;;;31.48;50.91
34586;BME280;20816;50.950;11.108;2023-05-22T12:14:37;98069.09;;;31.92;51.14
34586;BME280;20816;50.950;11.108;2023-05-22T12:17:04;98070.88;;;31.53;51.50
34586;BME280;20816;50.950;11.108;2023-05-22T12:19:31;98068.81;;;31.56;50.90
34586;BME280;20816;50.950;11.108;2023-05-22T12:21:58;98073.34;;;30.85;52.00
34586;BME280;20816;50.950;11.108;2023-05-22T12:24:25;98066.03;;;30.85;52.59
34586;BME280;20816;50.950;11.108;2023-05-22T12:26:52;98062.28;;;30.94;52.24
34586;BME280;20816;50.950;11.108;2023-05-22T12:29:22;98062.75;;;30.34;53.59
34586;BME280;20816;50.950;11.108;2023-05-22T12:31:49;98065.53;;;30.90;52.08
34586;BME280;20816;50.950;11.108;2023-05-22T12:34:16;98052.88;;;30.74;50.18
34586;BME280;20816;50.950;11.108;2023-05-22T12:36:45;98062.34;;;30.78;48.94
34586;BME280;20816;50.950;11.108;2023-05-22T12:39:17;98053.28;;;30.14;50.12
34586;BME280;20816;50.950;11.108;2023-05-22T12:41:44;98060.00;;;29.61;51.60
34586;BME280;20816;50.950;11.108;2023-05-22T12:44:14;98051.53;;;29.72;52.43
34586;BME280;20816;50.950;11.108;2023-05-22T12:46:41;98047.78;;;29.49;54.53
34586;BME280;20816;50.950;11.108;2023-05-22T12:49:09;98054.53;;;29.45;55.08
34586;BME280;20816;50.950;11.108;2023-05-22T12:51:36;98050.69;;;30.04;52.10
34586;BME280;20816;50.950;11.108;2023-05-22T12:54:03;98043.41;;;30.46;51.02
34586;BME280;20816;50.950;11.108;2023-05-22T12:56:31;98045.63;;;30.01;53.17
34586;BME280;20816;50.950;11.108;2023-05-22T12:58:58;98045.38;;;29.46;53.58
34586;BME280;20816;50.950;11.108;2023-05-22T13:01:25;98038.28;;;29.45;53.65
34586;BME280;20816;50.950;11.108;2023-05-22T13:03:51;98040.56;;;30.06;52.90
34586;BME280;20816;50.950;11.108;2023-05-22T13:06:18;98043.28;;;29.98;52.42
34586;BME280;20816;50.950;11.108;2023-05-22T13:08:46;98035.63;;;30.02;53.13
34586;BME280;20816;50.950;11.108;2023-05-22T13:11:12;98032.56;;;29.64;54.26
34586;BME280;20816;50.950;11.108;2023-05-22T13:13:39;98034.88;;;29.35;53.91